sensor_id;sensor_type;location;lat;lon;timestamp;P1;durP1;ratioP1;P2;durP2;ratioP2
62268;SDS011;56517;51.634;5.566;2022-07-23T00:05:00;10.10;;;6.75;;
62268;SDS011;56517;51.634;5.566;2022-07-23T00:10:01;9.60;;;6.60;;
62268;SDS011;56517;51.634;5.566;2022-07-23T00:15:02;9.57;;;6.43;;
62268;SDS011;56517;51.634;5.566;2022-07-23T00:20:05;9.15;;;7.07;;
62268;SDS011;56517;51.634;5.566;2022-07-23T00:25:05;11.60;;;6.50;;
62268;SDS011;56517;51.634;5.566;2022-07-23T00:30:07;8.27;;;6.70;;
62268;SDS011;56517;51.634;5.566;2022-07-23T00:35:09;10.40;;;6.70;;
62268;SDS011;56517;51.634;5.566;2022-07-23T00:40:10;10.98;;;6.47;;
62268;SDS011;56517;51.634;5.566;2022-07-23T00:45:11;13.02;;;7.05;;
62268;SDS011;56517;51.634;5.566;2022-07-23T00:50:14;13.38;;;7.57;;
62268;SDS011;56517;51.634;5.566;2022-07-23T00:55:14;11.35;;;6.90;;
62268;SDS011;56517;51.634;5.566;2022-07-23T01:00:15;11.38;;;7.18;;
62268;SDS011;56517;51.634;5.566;2022-07-23T01:05:17;11.00;;;7.05;;
62268;SDS011;56517;51.634;5.566;2022-07-23T01:10:18;13.18;;;7.57;;
62268;SDS011;56517;51.634;5.566;2022-07-23T01:15:19;14.07;;;8.57;;
62268;SDS011;56517;51.634;5.566;2022-07-23T01:20:21;11.00;;;8.02;;
62268;SDS011;56517;51.634;5.566;2022-07-23T01:25:23;12.75;;;8.32;;
62268;SDS011;56517;51.634;5.566;2022-07-23T01:30:24;11.07;;;7.85;;
62268;SDS011;56517;51.634;5.566;2022-07-23T01:35:24;10.18;;;7.43;;
62268;SDS011;56517;51.634;5.566;2022-07-23T01:40:26;12.05;;;7.75;;
62268;SDS011;56517;51.634;5.566;2022-07-23T01:45:27;9.10;;;7.18;;
62268;SDS011;56517;51.634;5.566;2022-07-23T01:50:27;8.52;;;6.40;;
62268;SDS011;56517;51.634;5.566;2022-07-23T01:55:29;12.27;;;7.25;;
62268;SDS011;56517;51.634;5.566;2022-07-23T02:00:30;10.38;;;6.93;;
62268;SDS011;56517;51.634;5.566;2022-07-23T02:05:31;11.85;;;7.30;;
62268;SDS011;56517;51.634;5.566;2022-07-23T02:10:33;14.65;;;7.90;;
62268;SDS011;56517;51.634;5.566;2022-07-23T02:15:33;13.30;;;7.82;;
62268;SDS011;56517;51.634;5.566;2022-07-23T02:20:34;12.98;;;8.55;;
62268;SDS011;56517;51.634;5.566;2022-07-23T02:25:36;10.20;;;8.07;;
62268;SDS011;56517;51.634;5.566;2022-07-23T02:30:36;10.32;;;7.93;;
62268;SDS011;56517;51.634;5.566;2022-07-23T02:35:37;9.43;;;7.75;;
62268;SDS011;56517;51.634;5.566;2022-07-23T02:40:39;12.05;;;8.38;;
62268;SDS011;56517;51.634;5.566;2022-07-23T02:45:39;14.65;;;8.23;;
62268;SDS011;56517;51.634;5.566;2022-07-23T02:50:40;13.48;;;8.45;;
62268;SDS011;56517;51.634;5.566;2022-07-23T02:55:42;11.43;;;8.70;;
62268;SDS011;56517;51.634;5.566;2022-07-23T03:00:43;12.55;;;8.90;;
62268;SDS011;56517;51.634;5.566;2022-07-23T03:05:43;12.52;;;8.38;;
62268;SDS011;56517;51.634;5.566;2022-07-23T03:10:45;11.88;;;8.70;;
62268;SDS011;56517;51.634;5.566;2022-07-23T03:15:46;10.88;;;9.13;;
62268;SDS011;56517;51.634;5.566;2022-07-23T03:20:46;14.77;;;8.80;;
62268;SDS011;56517;51.634;5.566;2022-07-23T03:25:48;11.07;;;8.50;;
62268;SDS011;56517;51.634;5.566;2022-07-23T03:30:49;10.95;;;8.10;;
62268;SDS011;56517;51.634;5.566;2022-07-23T03:35:49;14.02;;;8.18;;
62268;SDS011;56517;51.634;5.566;2022-07-23T03:40:51;15.15;;;8.80;;
62268;SDS011;56517;51.634;5.566;2022-07-23T03:45:52;10.95;;;7.45;;
62268;SDS011;56517;51.634;5.566;2022-07-23T03:50:53;12.13;;;8.90;;
62268;SDS011;56517;51.634;5.566;2022-07-23T03:55:54;16.15;;;9.25;;
62268;SDS011;56517;51.634;5.566;2022-07-23T04:00:55;15.88;;;9.88;;
62268;SDS011;56517;51.634;5.566;2022-07-23T04:05:56;12.48;;;8.98;;
62268;SDS011;56517;51.634;5.566;2022-07-23T04:10:57;18.10;;;9.45;;
62268;SDS011;56517;51.634;5.566;2022-07-23T04:15:58;13.52;;;9.57;;
62268;SDS011;56517;51.634;5.566;2022-07-23T04:20:59;11.38;;;9.13;;
62268;SDS011;56517;51.634;5.566;2022-07-23T04:26:01;12.90;;;9.10;;
62268;SDS011;56517;51.634;5.566;2022-07-23T04:31:01;14.60;;;9.45;;
62268;SDS011;56517;51.634;5.566;2022-07-23T04:36:02;12.75;;;8.82;;
62268;SDS011;56517;51.634;5.566;2022-07-23T04:41:04;11.65;;;9.43;;
62268;SDS011;56517;51.634;5.566;2022-07-23T04:46:04;14.25;;;9.80;;
62268;SDS011;56517;51.634;5.566;2022-07-23T04:51:05;13.13;;;10.07;;
62268;SDS011;56517;51.634;5.566;2022-07-23T04:56:07;14.05;;;9.77;;
62268;SDS011;56517;51.634;5.566;2022-07-23T05:01:08;22.75;;;10.82;;
62268;SDS011;56517;51.634;5.566;2022-07-23T05:06:08;17.25;;;10.60;;
62268;SDS011;56517;51.634;5.566;2022-07-23T05:11:10;17.77;;;10.15;;
62268;SDS011;56517;51.634;5.566;2022-07-23T05:16:11;20.45;;;9.88;;
62268;SDS011;56517;51.634;5.566;2022-07-23T05:21:11;15.80;;;9.48;;
62268;SDS011;56517;51.634;5.566;2022-07-23T05:26:13;13.18;;;10.05;;
62268;SDS011;56517;51.634;5.566;2022-07-23T05:31:14;16.25;;;9.88;;
62268;SDS011;56517;51.634;5.566;2022-07-23T05:36:15;13.10;;;9.60;;
62268;SDS011;56517;51.634;5.566;2022-07-23T05:41:17;15.15;;;10.70;;
62268;SDS011;56517;51.634;5.566;2022-07-23T05:46:17;13.57;;;10.05;;
62268;SDS011;56517;51.634;5.566;2022-07-23T05:51:21;16.27;;;11.35;;
62268;SDS011;56517;51.634;5.566;2022-07-23T05:56:23;16.48;;;10.82;;
62268;SDS011;56517;51.634;5.566;2022-07-23T06:01:23;15.30;;;11.68;;
62268;SDS011;56517;51.634;5.566;2022-07-23T06:06:24;15.77;;;11.55;;
62268;SDS011;56517;51.634;5.566;2022-07-23T06:11:26;17.95;;;12.05;;
62268;SDS011;56517;51.634;5.566;2022-07-23T06:16:26;14.52;;;10.15;;
62268;SDS011;56517;51.634;5.566;2022-07-23T06:21:27;14.27;;;10.23;;
62268;SDS011;56517;51.634;5.566;2022-07-23T06:26:29;13.80;;;9.40;;
62268;SDS011;56517;51.634;5.566;2022-07-23T06:31:29;13.30;;;9.50;;
62268;SDS011;56517;51.634;5.566;2022-07-23T06:36:30;13.98;;;9.55;;
62268;SDS011;56517;51.634;5.566;2022-07-23T06:41:32;16.02;;;8.63;;
62268;SDS011;56517;51.634;5.566;2022-07-23T06:46:32;16.45;;;9.65;;
62268;SDS011;56517;51.634;5.566;2022-07-23T06:51:33;18.85;;;8.98;;
62268;SDS011;56517;51.634;5.566;2022-07-23T06:56:35;12.98;;;8.88;;
62268;SDS011;56517;51.634;5.566;2022-07-23T07:01:35;11.27;;;7.90;;
62268;SDS011;56517;51.634;5.566;2022-07-23T07:06:36;10.02;;;8.10;;
62268;SDS011;56517;51.634;5.566;2022-07-23T07:11:38;11.20;;;8.02;;
62268;SDS011;56517;51.634;5.566;2022-07-23T07:16:38;12.38;;;8.77;;
62268;SDS011;56517;51.634;5.566;2022-07-23T07:21:39;12.45;;;7.72;;
62268;SDS011;56517;51.634;5.566;2022-07-23T07:26:41;10.85;;;7.32;;
62268;SDS011;56517;51.634;5.566;2022-07-23T07:31:41;10.85;;;6.32;;
62268;SDS011;56517;51.634;5.566;2022-07-23T07:36:42;11.88;;;6.90;;
62268;SDS011;56517;51.634;5.566;2022-07-23T07:41:44;8.57;;;6.22;;
62268;SDS011;56517;51.634;5.566;2022-07-23T07:46:44;8.80;;;6.20;;
62268;SDS011;56517;51.634;5.566;2022-07-23T07:51:45;9.90;;;6.30;;
62268;SDS011;56517;51.634;5.566;2022-07-23T07:56:47;8.32;;;5.72;;
62268;SDS011;56517;51.634;5.566;2022-07-23T08:01:47;7.32;;;5.75;;
62268;SDS011;56517;51.634;5.566;2022-07-23T08:06:48;8.60;;;5.65;;
62268;SDS011;56517;51.634;5.566;2022-07-23T08:11:50;7.40;;;4.00;;
62268;SDS011;56517;51.634;5.566;2022-07-23T08:16:52;7.25;;;5.03;;
62268;SDS011;56517;51.634;5.566;2022-07-23T08:21:52;7.38;;;5.15;;
62268;SDS011;56517;51.634;5.566;2022-07-23T08:26:54;7.38;;;4.95;;
62268;SDS011;56517;51.634;5.566;2022-07-23T08:31:55;8.40;;;4.63;;
62268;SDS011;56517;51.634;5.566;2022-07-23T08:36:55;7.57;;;4.25;;
62268;SDS011;56517;51.634;5.566;2022-07-23T08:41:57;8.18;;;4.38;;
62268;SDS011;56517;51.634;5.566;2022-07-23T08:46:58;7.53;;;4.65;;
62268;SDS011;56517;51.634;5.566;2022-07-23T08:51:59;7.28;;;4.82;;
62268;SDS011;56517;51.634;5.566;2022-07-23T08:57:01;7.53;;;4.97;;
62268;SDS011;56517;51.634;5.566;2022-07-23T09:02:01;11.10;;;5.22;;
62268;SDS011;56517;51.634;5.566;2022-07-23T09:07:02;8.35;;;5.53;;
62268;SDS011;56517;51.634;5.566;2022-07-23T09:12:05;8.18;;;5.70;;
62268;SDS011;56517;51.634;5.566;2022-07-23T09:17:10;8.85;;;6.45;;
62268;SDS011;56517;51.634;5.566;2022-07-23T09:22:18;10.82;;;6.78;;
62268;SDS011;56517;51.634;5.566;2022-07-23T09:27:20;13.77;;;6.97;;
62268;SDS011;56517;51.634;5.566;2022-07-23T09:32:20;10.07;;;6.78;;
62268;SDS011;56517;51.634;5.566;2022-07-23T09:37:21;9.50;;;7.25;;
62268;SDS011;56517;51.634;5.566;2022-07-23T09:42:24;10.43;;;6.55;;
62268;SDS011;56517;51.634;5.566;2022-07-23T09:47:25;9.95;;;6.57;;
62268;SDS011;56517;51.634;5.566;2022-07-23T09:52:26;7.38;;;5.13;;
62268;SDS011;56517;51.634;5.566;2022-07-23T09:57:28;8.48;;;5.82;;
62268;SDS011;56517;51.634;5.566;2022-07-23T10:02:28;8.32;;;6.30;;
62268;SDS011;56517;51.634;5.566;2022-07-23T10:07:32;9.95;;;6.25;;
62268;SDS011;56517;51.634;5.566;2022-07-23T10:12:35;12.38;;;6.72;;
62268;SDS011;56517;51.634;5.566;2022-07-23T10:17:36;6.63;;;5.40;;
62268;SDS011;56517;51.634;5.566;2022-07-23T10:22:37;7.90;;;6.32;;
62268;SDS011;56517;51.634;5.566;2022-07-23T10:33:02;10.00;;;6.50;;
62268;SDS011;56517;51.634;5.566;2022-07-23T10:38:07;10.63;;;7.90;;
62268;SDS011;56517;51.634;5.566;2022-07-23T10:43:13;9.73;;;7.20;;
62268;SDS011;56517;51.634;5.566;2022-07-23T10:48:17;10.23;;;7.00;;
62268;SDS011;56517;51.634;5.566;2022-07-23T10:53:18;8.98;;;7.28;;
62268;SDS011;56517;51.634;5.566;2022-07-23T10:58:23;14.07;;;8.13;;
62268;SDS011;56517;51.634;5.566;2022-07-23T11:03:29;19.50;;;9.07;;
62268;SDS011;56517;51.634;5.566;2022-07-23T11:08:30;10.85;;;7.28;;
62268;SDS011;56517;51.634;5.566;2022-07-23T11:19:07;9.15;;;6.65;;
62268;SDS011;56517;51.634;5.566;2022-07-23T11:24:08;6.28;;;5.13;;
62268;SDS011;56517;51.634;5.566;2022-07-23T11:34:28;10.48;;;6.57;;
62268;SDS011;56517;51.634;5.566;2022-07-23T11:39:29;7.20;;;6.47;;
62268;SDS011;56517;51.634;5.566;2022-07-23T11:44:30;8.13;;;6.32;;
62268;SDS011;56517;51.634;5.566;2022-07-23T11:49:32;7.00;;;5.47;;
62268;SDS011;56517;51.634;5.566;2022-07-23T11:54:33;6.43;;;5.53;;
62268;SDS011;56517;51.634;5.566;2022-07-23T11:59:35;6.40;;;4.90;;
62268;SDS011;56517;51.634;5.566;2022-07-23T12:04:40;8.75;;;6.22;;
62268;SDS011;56517;51.634;5.566;2022-07-23T12:09:43;6.60;;;5.05;;
62268;SDS011;56517;51.634;5.566;2022-07-23T12:14:47;5.97;;;5.38;;
62268;SDS011;56517;51.634;5.566;2022-07-23T12:19:49;9.13;;;7.25;;
62268;SDS011;56517;51.634;5.566;2022-07-23T12:24:57;7.28;;;6.07;;
62268;SDS011;56517;51.634;5.566;2022-07-23T12:29:58;8.73;;;7.65;;
62268;SDS011;56517;51.634;5.566;2022-07-23T12:35:04;7.53;;;5.72;;
62268;SDS011;56517;51.634;5.566;2022-07-23T12:45:27;6.85;;;5.43;;
62268;SDS011;56517;51.634;5.566;2022-07-23T12:50:47;7.85;;;5.95;;
62268;SDS011;56517;51.634;5.566;2022-07-23T12:55:50;7.72;;;5.70;;
62268;SDS011;56517;51.634;5.566;2022-07-23T13:00:52;8.02;;;6.53;;
62268;SDS011;56517;51.634;5.566;2022-07-23T13:05:55;9.13;;;7.20;;
62268;SDS011;56517;51.634;5.566;2022-07-23T13:10:56;7.53;;;5.75;;
62268;SDS011;56517;51.634;5.566;2022-07-23T13:15:57;11.50;;;5.82;;
62268;SDS011;56517;51.634;5.566;2022-07-23T13:20:59;7.80;;;5.50;;
62268;SDS011;56517;51.634;5.566;2022-07-23T13:26:00;11.05;;;7.00;;
62268;SDS011;56517;51.634;5.566;2022-07-23T13:31:00;8.90;;;7.18;;
62268;SDS011;56517;51.634;5.566;2022-07-23T13:36:02;8.50;;;6.10;;
62268;SDS011;56517;51.634;5.566;2022-07-23T13:41:03;9.15;;;6.85;;
62268;SDS011;56517;51.634;5.566;2022-07-23T13:46:04;7.93;;;6.50;;
62268;SDS011;56517;51.634;5.566;2022-07-23T13:51:06;8.68;;;6.78;;
62268;SDS011;56517;51.634;5.566;2022-07-23T13:56:07;9.27;;;6.50;;
62268;SDS011;56517;51.634;5.566;2022-07-23T14:01:08;7.90;;;6.32;;
62268;SDS011;56517;51.634;5.566;2022-07-23T14:06:10;8.40;;;6.35;;
62268;SDS011;56517;51.634;5.566;2022-07-23T14:11:10;7.20;;;6.40;;
62268;SDS011;56517;51.634;5.566;2022-07-23T14:16:11;9.85;;;5.72;;
62268;SDS011;56517;51.634;5.566;2022-07-23T14:21:13;9.57;;;7.32;;
62268;SDS011;56517;51.634;5.566;2022-07-23T14:26:13;7.63;;;6.20;;
62268;SDS011;56517;51.634;5.566;2022-07-23T14:31:14;7.63;;;6.05;;
62268;SDS011;56517;51.634;5.566;2022-07-23T14:36:16;6.65;;;5.65;;
62268;SDS011;56517;51.634;5.566;2022-07-23T14:41:16;8.40;;;6.10;;
62268;SDS011;56517;51.634;5.566;2022-07-23T14:46:17;8.75;;;6.97;;
62268;SDS011;56517;51.634;5.566;2022-07-23T14:51:19;11.63;;;7.20;;
62268;SDS011;56517;51.634;5.566;2022-07-23T14:56:19;10.73;;;7.32;;
62268;SDS011;56517;51.634;5.566;2022-07-23T15:01:20;10.13;;;7.00;;
62268;SDS011;56517;51.634;5.566;2022-07-23T15:06:22;7.78;;;5.97;;
62268;SDS011;56517;51.634;5.566;2022-07-23T15:11:23;7.82;;;6.07;;
62268;SDS011;56517;51.634;5.566;2022-07-23T15:16:23;7.15;;;5.35;;
62268;SDS011;56517;51.634;5.566;2022-07-23T15:21:25;6.72;;;5.15;;
62268;SDS011;56517;51.634;5.566;2022-07-23T15:26:26;8.35;;;6.10;;
62268;SDS011;56517;51.634;5.566;2022-07-23T15:31:27;6.72;;;5.78;;
62268;SDS011;56517;51.634;5.566;2022-07-23T15:36:28;8.82;;;6.63;;
62268;SDS011;56517;51.634;5.566;2022-07-23T15:41:29;8.90;;;6.20;;
62268;SDS011;56517;51.634;5.566;2022-07-23T15:46:30;6.88;;;5.90;;
62268;SDS011;56517;51.634;5.566;2022-07-23T15:51:32;10.02;;;6.10;;
62268;SDS011;56517;51.634;5.566;2022-07-23T15:56:32;7.82;;;5.18;;
62268;SDS011;56517;51.634;5.566;2022-07-23T16:01:33;8.32;;;6.32;;
62268;SDS011;56517;51.634;5.566;2022-07-23T16:06:35;10.48;;;6.47;;
62268;SDS011;56517;51.634;5.566;2022-07-23T16:11:35;9.45;;;6.25;;
62268;SDS011;56517;51.634;5.566;2022-07-23T16:16:36;10.00;;;6.10;;
62268;SDS011;56517;51.634;5.566;2022-07-23T16:21:38;9.40;;;7.45;;
62268;SDS011;56517;51.634;5.566;2022-07-23T16:26:39;6.65;;;5.95;;
62268;SDS011;56517;51.634;5.566;2022-07-23T16:31:39;12.15;;;6.90;;
62268;SDS011;56517;51.634;5.566;2022-07-23T16:36:42;8.98;;;6.05;;
62268;SDS011;56517;51.634;5.566;2022-07-23T16:41:42;8.90;;;6.22;;
62268;SDS011;56517;51.634;5.566;2022-07-23T16:46:43;7.55;;;5.78;;
62268;SDS011;56517;51.634;5.566;2022-07-23T16:51:45;6.45;;;5.78;;
62268;SDS011;56517;51.634;5.566;2022-07-23T16:56:46;6.45;;;5.80;;
62268;SDS011;56517;51.634;5.566;2022-07-23T17:01:46;7.30;;;5.72;;
62268;SDS011;56517;51.634;5.566;2022-07-23T17:06:48;8.88;;;6.65;;
62268;SDS011;56517;51.634;5.566;2022-07-23T17:11:49;7.80;;;5.72;;
62268;SDS011;56517;51.634;5.566;2022-07-23T17:16:49;8.88;;;5.90;;
62268;SDS011;56517;51.634;5.566;2022-07-23T17:21:51;7.53;;;6.00;;
62268;SDS011;56517;51.634;5.566;2022-07-23T17:26:52;7.75;;;6.15;;
62268;SDS011;56517;51.634;5.566;2022-07-23T17:31:53;7.00;;;5.97;;
62268;SDS011;56517;51.634;5.566;2022-07-23T17:36:54;7.15;;;6.20;;
62268;SDS011;56517;51.634;5.566;2022-07-23T17:41:55;6.72;;;5.93;;
62268;SDS011;56517;51.634;5.566;2022-07-23T17:46:56;7.80;;;6.38;;
62268;SDS011;56517;51.634;5.566;2022-07-23T17:52:00;9.30;;;6.28;;
62268;SDS011;56517;51.634;5.566;2022-07-23T17:57:00;7.22;;;5.82;;
62268;SDS011;56517;51.634;5.566;2022-07-23T18:02:01;9.18;;;5.78;;
62268;SDS011;56517;51.634;5.566;2022-07-23T18:07:03;8.35;;;6.55;;
62268;SDS011;56517;51.634;5.566;2022-07-23T18:12:03;9.55;;;5.97;;
62268;SDS011;56517;51.634;5.566;2022-07-23T18:17:04;7.63;;;5.80;;
62268;SDS011;56517;51.634;5.566;2022-07-23T18:22:06;8.25;;;5.68;;
62268;SDS011;56517;51.634;5.566;2022-07-23T18:27:07;8.32;;;5.43;;
62268;SDS011;56517;51.634;5.566;2022-07-23T18:32:07;6.80;;;5.70;;
62268;SDS011;56517;51.634;5.566;2022-07-23T18:37:09;9.57;;;6.15;;
62268;SDS011;56517;51.634;5.566;2022-07-23T18:42:10;7.25;;;5.47;;
62268;SDS011;56517;51.634;5.566;2022-07-23T18:47:10;8.85;;;5.22;;
62268;SDS011;56517;51.634;5.566;2022-07-23T18:52:12;9.82;;;5.93;;
62268;SDS011;56517;51.634;5.566;2022-07-23T18:57:13;8.15;;;5.88;;
62268;SDS011;56517;51.634;5.566;2022-07-23T19:02:14;8.93;;;5.72;;
62268;SDS011;56517;51.634;5.566;2022-07-23T19:07:16;7.40;;;5.68;;
62268;SDS011;56517;51.634;5.566;2022-07-23T19:12:16;8.25;;;5.75;;
62268;SDS011;56517;51.634;5.566;2022-07-23T19:17:17;9.90;;;5.60;;
62268;SDS011;56517;51.634;5.566;2022-07-23T19:22:19;9.68;;;6.22;;
62268;SDS011;56517;51.634;5.566;2022-07-23T19:27:19;11.55;;;6.10;;
62268;SDS011;56517;51.634;5.566;2022-07-23T19:32:20;7.72;;;5.95;;
62268;SDS011;56517;51.634;5.566;2022-07-23T19:37:22;9.00;;;6.40;;
62268;SDS011;56517;51.634;5.566;2022-07-23T19:42:23;12.07;;;6.95;;
62268;SDS011;56517;51.634;5.566;2022-07-23T19:47:23;10.88;;;6.88;;
62268;SDS011;56517;51.634;5.566;2022-07-23T19:52:25;11.73;;;7.20;;
62268;SDS011;56517;51.634;5.566;2022-07-23T19:57:26;10.00;;;6.47;;
62268;SDS011;56517;51.634;5.566;2022-07-23T20:02:26;9.98;;;7.50;;
62268;SDS011;56517;51.634;5.566;2022-07-23T20:07:28;11.30;;;7.93;;
62268;SDS011;56517;51.634;5.566;2022-07-23T20:12:29;13.00;;;8.00;;
62268;SDS011;56517;51.634;5.566;2022-07-23T20:17:30;14.30;;;8.10;;
62268;SDS011;56517;51.634;5.566;2022-07-23T20:22:32;11.52;;;8.45;;
62268;SDS011;56517;51.634;5.566;2022-07-23T20:27:33;17.98;;;9.30;;
62268;SDS011;56517;51.634;5.566;2022-07-23T20:32:33;12.25;;;8.90;;
62268;SDS011;56517;51.634;5.566;2022-07-23T20:37:35;12.18;;;9.32;;
62268;SDS011;56517;51.634;5.566;2022-07-23T20:42:36;15.77;;;10.27;;
62268;SDS011;56517;51.634;5.566;2022-07-23T20:47:36;15.52;;;10.52;;
62268;SDS011;56517;51.634;5.566;2022-07-23T20:52:38;16.33;;;9.85;;
62268;SDS011;56517;51.634;5.566;2022-07-23T20:57:39;15.02;;;10.25;;
62268;SDS011;56517;51.634;5.566;2022-07-23T21:02:40;14.30;;;10.50;;
62268;SDS011;56517;51.634;5.566;2022-07-23T21:07:42;16.67;;;11.95;;
62268;SDS011;56517;51.634;5.566;2022-07-23T21:12:42;14.20;;;10.15;;
62268;SDS011;56517;51.634;5.566;2022-07-23T21:17:43;16.15;;;11.07;;
62268;SDS011;56517;51.634;5.566;2022-07-23T21:22:45;15.57;;;11.40;;
62268;SDS011;56517;51.634;5.566;2022-07-23T21:27:45;16.38;;;11.65;;
62268;SDS011;56517;51.634;5.566;2022-07-23T21:32:46;15.80;;;11.68;;
62268;SDS011;56517;51.634;5.566;2022-07-23T21:37:48;16.98;;;12.88;;
62268;SDS011;56517;51.634;5.566;2022-07-23T21:42:48;18.98;;;13.20;;
62268;SDS011;56517;51.634;5.566;2022-07-23T21:47:49;19.02;;;13.88;;
62268;SDS011;56517;51.634;5.566;2022-07-23T21:52:51;18.58;;;12.85;;
62268;SDS011;56517;51.634;5.566;2022-07-23T21:57:51;18.20;;;12.88;;
62268;SDS011;56517;51.634;5.566;2022-07-23T22:02:53;18.15;;;12.38;;
62268;SDS011;56517;51.634;5.566;2022-07-23T22:07:55;20.05;;;13.65;;
62268;SDS011;56517;51.634;5.566;2022-07-23T22:12:56;20.67;;;14.73;;
62268;SDS011;56517;51.634;5.566;2022-07-23T22:17:56;19.70;;;14.68;;
62268;SDS011;56517;51.634;5.566;2022-07-23T22:22:58;25.45;;;17.67;;
62268;SDS011;56517;51.634;5.566;2022-07-23T22:27:59;23.55;;;15.70;;
62268;SDS011;56517;51.634;5.566;2022-07-23T22:32:59;24.75;;;15.25;;
62268;SDS011;56517;51.634;5.566;2022-07-23T22:38:01;20.50;;;14.25;;
62268;SDS011;56517;51.634;5.566;2022-07-23T22:43:02;23.05;;;14.65;;
62268;SDS011;56517;51.634;5.566;2022-07-23T22:48:03;21.98;;;14.80;;
62268;SDS011;56517;51.634;5.566;2022-07-23T22:53:05;22.70;;;14.55;;
62268;SDS011;56517;51.634;5.566;2022-07-23T22:58:05;21.75;;;15.60;;
62268;SDS011;56517;51.634;5.566;2022-07-23T23:03:06;21.85;;;15.15;;
62268;SDS011;56517;51.634;5.566;2022-07-23T23:08:08;22.20;;;14.73;;
62268;SDS011;56517;51.634;5.566;2022-07-23T23:13:08;19.88;;;14.63;;
62268;SDS011;56517;51.634;5.566;2022-07-23T23:18:09;23.23;;;15.38;;
62268;SDS011;56517;51.634;5.566;2022-07-23T23:23:11;26.70;;;16.73;;
62268;SDS011;56517;51.634;5.566;2022-07-23T23:28:11;24.63;;;15.30;;
62268;SDS011;56517;51.634;5.566;2022-07-23T23:33:12;24.65;;;15.20;;
62268;SDS011;56517;51.634;5.566;2022-07-23T23:38:14;21.45;;;15.18;;
62268;SDS011;56517;51.634;5.566;2022-07-23T23:43:15;25.48;;;15.50;;
62268;SDS011;56517;51.634;5.566;2022-07-23T23:48:15;25.40;;;16.13;;
62268;SDS011;56517;51.634;5.566;2022-07-23T23:53:17;24.27;;;15.88;;
62268;SDS011;56517;51.634;5.566;2022-07-23T23:58:18;22.98;;;16.00;;
